sensor_id;sensor_type;location;lat;lon;timestamp;pressure;altitude;pressure_sealevel;temperature;humidity
78717;BME280;68045;50.042;14.432;2023-03-14T00:03:47;96673.28;;;11.25;65.97
78717;BME280;68045;50.042;14.432;2023-03-14T00:07:48;96689.13;;;11.20;65.83
78717;BME280;68045;50.042;14.432;2023-03-14T00:11:49;96691.78;;;11.20;65.51
78717;BME280;68045;50.042;14.432;2023-03-14T00:15:51;96691.47;;;11.26;64.41
78717;BME280;68045;50.042;14.432;2023-03-14T00:19:53;96656.06;;;11.27;64.76
78717;BME280;68045;50.042;14.432;2023-03-14T00:23:54;96654.00;;;11.24;64.37
78717;BME280;68045;50.042;14.432;2023-03-14T00:27:55;96639.44;;;11.27;63.91
78717;BME280;68045;50.042;14.432;2023-03-14T00:31:56;96639.53;;;11.12;64.42
78717;BME280;68045;50.042;14.432;2023-03-14T00:35:59;96612.63;;;11.10;63.61
78717;BME280;68045;50.042;14.432;2023-03-14T00:40:04;96607.31;;;11.15;64.27
78717;BME280;68045;50.042;14.432;2023-03-14T00:44:07;96593.66;;;11.03;64.62
78717;BME280;68045;50.042;14.432;2023-03-14T00:48:08;96562.28;;;10.96;63.97
78717;BME280;68045;50.042;14.432;2023-03-14T00:52:09;96562.13;;;10.82;65.13
78717;BME280;68045;50.042;14.432;2023-03-14T00:56:12;96533.19;;;10.67;67.13
78717;BME280;68045;50.042;14.432;2023-03-14T01:00:14;96505.63;;;10.39;68.44
78717;BME280;68045;50.042;14.432;2023-03-14T01:04:15;96463.63;;;9.98;70.43
78717;BME280;68045;50.042;14.432;2023-03-14T01:08:16;96430.72;;;9.85;71.39
78717;BME280;68045;50.042;14.432;2023-03-14T01:12:17;96426.25;;;9.86;71.00
78717;BME280;68045;50.042;14.432;2023-03-14T01:16:19;96395.09;;;9.98;70.45
78717;BME280;68045;50.042;14.432;2023-03-14T01:20:21;96384.03;;;10.01;70.82
78717;BME280;68045;50.042;14.432;2023-03-14T01:24:22;96420.91;;;10.01;70.78
78717;BME280;68045;50.042;14.432;2023-03-14T01:28:24;96414.53;;;10.07;70.63
78717;BME280;68045;50.042;14.432;2023-03-14T01:32:25;96395.28;;;10.12;70.76
78717;BME280;68045;50.042;14.432;2023-03-14T01:36:27;96410.81;;;10.24;71.17
78717;BME280;68045;50.042;14.432;2023-03-14T01:40:28;96422.06;;;10.34;70.07
78717;BME280;68045;50.042;14.432;2023-03-14T01:53:47;96418.44;;;10.25;70.01
78717;BME280;68045;50.042;14.432;2023-03-14T01:57:56;96417.03;;;10.38;69.55
78717;BME280;68045;50.042;14.432;2023-03-14T02:02:00;96414.09;;;10.44;69.05
78717;BME280;68045;50.042;14.432;2023-03-14T02:06:07;96382.97;;;10.41;69.45
78717;BME280;68045;50.042;14.432;2023-03-14T02:10:10;96380.63;;;10.40;69.20
78717;BME280;68045;50.042;14.432;2023-03-14T02:14:42;96385.41;;;10.38;70.15
78717;BME280;68045;50.042;14.432;2023-03-14T02:19:13;96388.25;;;10.41;69.59
78717;BME280;68045;50.042;14.432;2023-03-14T02:24:21;96407.72;;;10.51;68.92
78717;BME280;68045;50.042;14.432;2023-03-14T02:27:55;96425.41;;;10.50;69.09
78717;BME280;68045;50.042;14.432;2023-03-14T02:31:56;96425.88;;;10.57;68.79
78717;BME280;68045;50.042;14.432;2023-03-14T02:35:59;96432.16;;;10.61;68.94
78717;BME280;68045;50.042;14.432;2023-03-14T02:40:02;96455.44;;;10.54;69.01
78717;BME280;68045;50.042;14.432;2023-03-14T02:44:06;96420.06;;;10.55;68.91
78717;BME280;68045;50.042;14.432;2023-03-14T02:48:16;96416.19;;;10.48;69.03
78717;BME280;68045;50.042;14.432;2023-03-14T02:52:19;96394.59;;;10.40;68.55
78717;BME280;68045;50.042;14.432;2023-03-14T02:56:20;96380.03;;;10.48;68.51
78717;BME280;68045;50.042;14.432;2023-03-14T03:00:21;96361.81;;;10.52;68.10
78717;BME280;68045;50.042;14.432;2023-03-14T03:04:22;96335.72;;;10.50;68.97
78717;BME280;68045;50.042;14.432;2023-03-14T03:08:25;96357.94;;;10.44;69.14
78717;BME280;68045;50.042;14.432;2023-03-14T03:12:27;96357.41;;;10.42;68.96
78717;BME280;68045;50.042;14.432;2023-03-14T03:16:28;96348.47;;;10.38;68.43
78717;BME280;68045;50.042;14.432;2023-03-14T03:20:29;96332.94;;;10.36;69.39
78717;BME280;68045;50.042;14.432;2023-03-14T03:24:30;96323.72;;;10.34;69.02
78717;BME280;68045;50.042;14.432;2023-03-14T03:28:31;96321.56;;;10.36;68.91
78717;BME280;68045;50.042;14.432;2023-03-14T03:32:34;96331.59;;;10.39;69.03
78717;BME280;68045;50.042;14.432;2023-03-14T03:36:35;96323.69;;;10.39;68.65
78717;BME280;68045;50.042;14.432;2023-03-14T03:40:36;96319.16;;;10.44;68.98
78717;BME280;68045;50.042;14.432;2023-03-14T03:44:37;96326.28;;;10.73;68.00
78717;BME280;68045;50.042;14.432;2023-03-14T03:48:39;96359.00;;;10.43;68.82
78717;BME280;68045;50.042;14.432;2023-03-14T03:52:40;96355.72;;;10.17;69.59
78717;BME280;68045;50.042;14.432;2023-03-14T03:56:42;96355.53;;;10.03;69.53
78717;BME280;68045;50.042;14.432;2023-03-14T04:00:43;96361.81;;;10.07;69.91
78717;BME280;68045;50.042;14.432;2023-03-14T04:04:44;96355.25;;;10.10;70.49
78717;BME280;68045;50.042;14.432;2023-03-14T04:08:46;96347.53;;;10.24;70.25
78717;BME280;68045;50.042;14.432;2023-03-14T04:13:01;96373.22;;;10.42;70.74
78717;BME280;68045;50.042;14.432;2023-03-14T04:17:03;96377.84;;;10.60;70.48
78717;BME280;68045;50.042;14.432;2023-03-14T04:21:05;96378.97;;;10.83;70.25
78717;BME280;68045;50.042;14.432;2023-03-14T04:25:17;96387.78;;;10.97;70.17
78717;BME280;68045;50.042;14.432;2023-03-14T04:29:25;96359.78;;;11.02;70.25
78717;BME280;68045;50.042;14.432;2023-03-14T04:33:26;96358.47;;;10.99;70.92
78717;BME280;68045;50.042;14.432;2023-03-14T04:37:30;96361.03;;;11.09;70.19
78717;BME280;68045;50.042;14.432;2023-03-14T04:41:31;96352.53;;;11.12;69.45
78717;BME280;68045;50.042;14.432;2023-03-14T04:45:33;96357.03;;;11.12;70.32
78717;BME280;68045;50.042;14.432;2023-03-14T04:49:36;96368.38;;;11.12;70.16
78717;BME280;68045;50.042;14.432;2023-03-14T04:53:39;96371.88;;;11.08;69.75
78717;BME280;68045;50.042;14.432;2023-03-14T04:57:44;96367.66;;;11.07;70.43
78717;BME280;68045;50.042;14.432;2023-03-14T05:01:45;96369.22;;;11.08;70.27
78717;BME280;68045;50.042;14.432;2023-03-14T05:06:10;96354.50;;;11.02;70.16
78717;BME280;68045;50.042;14.432;2023-03-14T05:10:53;96350.44;;;10.85;70.69
78717;BME280;68045;50.042;14.432;2023-03-14T05:15:27;96350.81;;;10.73;71.35
78717;BME280;68045;50.042;14.432;2023-03-14T05:19:51;96352.13;;;10.71;71.34
78717;BME280;68045;50.042;14.432;2023-03-14T05:24:13;96346.97;;;10.61;70.62
78717;BME280;68045;50.042;14.432;2023-03-14T05:28:28;96344.91;;;10.58;70.48
78717;BME280;68045;50.042;14.432;2023-03-14T05:32:45;96339.31;;;10.64;70.49
78717;BME280;68045;50.042;14.432;2023-03-14T05:37:08;96336.41;;;10.61;70.08
78717;BME280;68045;50.042;14.432;2023-03-14T05:41:29;96350.06;;;10.68;69.93
78717;BME280;68045;50.042;14.432;2023-03-14T05:45:47;96350.31;;;10.71;69.40
78717;BME280;68045;50.042;14.432;2023-03-14T05:50:03;96345.81;;;10.72;69.21
78717;BME280;68045;50.042;14.432;2023-03-14T05:54:17;96351.88;;;10.72;68.74
78717;BME280;68045;50.042;14.432;2023-03-14T05:58:38;96348.19;;;10.73;68.41
78717;BME280;68045;50.042;14.432;2023-03-14T06:02:40;96343.66;;;10.79;67.53
78717;BME280;68045;50.042;14.432;2023-03-14T06:06:51;96340.22;;;10.79;67.65
78717;BME280;68045;50.042;14.432;2023-03-14T06:10:53;96329.38;;;10.80;66.58
78717;BME280;68045;50.042;14.432;2023-03-14T06:14:59;96351.56;;;10.79;67.46
78717;BME280;68045;50.042;14.432;2023-03-14T06:19:00;96370.22;;;10.88;66.63
78717;BME280;68045;50.042;14.432;2023-03-14T06:23:03;96370.44;;;10.91;65.98
78717;BME280;68045;50.042;14.432;2023-03-14T06:27:06;96374.88;;;10.96;65.88
78717;BME280;68045;50.042;14.432;2023-03-14T06:31:07;96375.91;;;11.00;65.83
78717;BME280;68045;50.042;14.432;2023-03-14T06:35:16;96371.34;;;11.06;65.47
78717;BME280;68045;50.042;14.432;2023-03-14T06:39:18;96373.91;;;11.16;64.79
78717;BME280;68045;50.042;14.432;2023-03-14T06:43:23;96364.41;;;11.15;65.53
78717;BME280;68045;50.042;14.432;2023-03-14T06:47:26;96369.34;;;11.21;64.27
78717;BME280;68045;50.042;14.432;2023-03-14T06:51:28;96348.72;;;11.23;64.66
78717;BME280;68045;50.042;14.432;2023-03-14T06:55:29;96367.94;;;11.29;64.86
78717;BME280;68045;50.042;14.432;2023-03-14T06:59:31;96372.94;;;11.31;64.51
78717;BME280;68045;50.042;14.432;2023-03-14T07:03:32;96385.09;;;11.32;64.38
78717;BME280;68045;50.042;14.432;2023-03-14T07:07:34;96394.75;;;11.41;63.56
78717;BME280;68045;50.042;14.432;2023-03-14T07:11:36;96386.28;;;11.44;63.46
78717;BME280;68045;50.042;14.432;2023-03-14T07:15:37;96392.91;;;11.42;63.10
78717;BME280;68045;50.042;14.432;2023-03-14T07:19:43;96393.41;;;11.44;62.69
78717;BME280;68045;50.042;14.432;2023-03-14T07:23:44;96395.47;;;11.47;62.86
78717;BME280;68045;50.042;14.432;2023-03-14T07:27:47;96390.31;;;11.37;62.60
78717;BME280;68045;50.042;14.432;2023-03-14T07:31:50;96384.47;;;11.40;62.77
78717;BME280;68045;50.042;14.432;2023-03-14T07:35:54;96399.25;;;11.41;63.06
78717;BME280;68045;50.042;14.432;2023-03-14T07:39:55;96399.25;;;11.41;63.05
78717;BME280;68045;50.042;14.432;2023-03-14T07:44:00;96373.78;;;11.50;62.78
78717;BME280;68045;50.042;14.432;2023-03-14T07:48:01;96373.78;;;11.50;61.82
78717;BME280;68045;50.042;14.432;2023-03-14T07:52:02;96382.72;;;11.54;61.43
78717;BME280;68045;50.042;14.432;2023-03-14T07:56:04;96379.53;;;11.57;62.22
78717;BME280;68045;50.042;14.432;2023-03-14T08:00:07;96388.34;;;11.71;61.98
78717;BME280;68045;50.042;14.432;2023-03-14T08:04:14;96383.72;;;11.82;61.32
78717;BME280;68045;50.042;14.432;2023-03-14T08:08:15;96390.03;;;11.86;60.74
78717;BME280;68045;50.042;14.432;2023-03-14T08:12:17;96386.31;;;11.87;60.34
78717;BME280;68045;50.042;14.432;2023-03-14T08:16:18;96400.69;;;12.00;59.71
78717;BME280;68045;50.042;14.432;2023-03-14T08:20:21;96392.75;;;12.00;59.78
78717;BME280;68045;50.042;14.432;2023-03-14T08:24:22;96400.25;;;11.93;59.33
78717;BME280;68045;50.042;14.432;2023-03-14T08:28:23;96401.41;;;12.05;59.29
78717;BME280;68045;50.042;14.432;2023-03-14T08:32:24;96395.19;;;12.15;59.52
78717;BME280;68045;50.042;14.432;2023-03-14T08:36:25;96404.91;;;12.01;59.08
78717;BME280;68045;50.042;14.432;2023-03-14T08:40:26;96409.69;;;11.99;58.66
78717;BME280;68045;50.042;14.432;2023-03-14T08:44:27;96392.03;;;11.94;59.31
78717;BME280;68045;50.042;14.432;2023-03-14T08:48:29;96409.75;;;11.94;59.46
78717;BME280;68045;50.042;14.432;2023-03-14T08:52:31;96400.81;;;11.90;58.79
78717;BME280;68045;50.042;14.432;2023-03-14T08:56:32;96425.84;;;12.16;57.74
78717;BME280;68045;50.042;14.432;2023-03-14T09:00:33;96423.91;;;12.59;55.90
78717;BME280;68045;50.042;14.432;2023-03-14T09:04:34;96413.72;;;12.85;54.81
78717;BME280;68045;50.042;14.432;2023-03-14T09:08:36;96440.00;;;12.63;55.15
78717;BME280;68045;50.042;14.432;2023-03-14T09:12:37;96432.56;;;12.65;55.98
78717;BME280;68045;50.042;14.432;2023-03-14T09:16:38;96439.69;;;12.83;54.85
78717;BME280;68045;50.042;14.432;2023-03-14T09:20:39;96454.81;;;12.97;53.49
78717;BME280;68045;50.042;14.432;2023-03-14T09:24:41;96465.88;;;13.17;53.22
78717;BME280;68045;50.042;14.432;2023-03-14T09:28:42;96456.88;;;12.86;53.73
78717;BME280;68045;50.042;14.432;2023-03-14T09:32:43;96440.31;;;12.94;53.65
78717;BME280;68045;50.042;14.432;2023-03-14T09:36:44;96439.00;;;12.78;53.08
78717;BME280;68045;50.042;14.432;2023-03-14T09:40:46;96409.69;;;12.55;54.21
78717;BME280;68045;50.042;14.432;2023-03-14T09:44:54;96405.25;;;12.70;54.09
78717;BME280;68045;50.042;14.432;2023-03-14T09:48:56;96416.63;;;12.70;53.41
78717;BME280;68045;50.042;14.432;2023-03-14T09:53:04;96411.50;;;12.41;53.38
78717;BME280;68045;50.042;14.432;2023-03-14T09:57:13;96420.34;;;12.50;53.71
78717;BME280;68045;50.042;14.432;2023-03-14T10:01:17;96444.38;;;12.35;52.99
78717;BME280;68045;50.042;14.432;2023-03-14T10:05:23;96421.44;;;12.30;53.17
78717;BME280;68045;50.042;14.432;2023-03-14T10:09:25;96420.94;;;12.28;53.60
78717;BME280;68045;50.042;14.432;2023-03-14T10:13:27;96431.38;;;12.20;54.09
78717;BME280;68045;50.042;14.432;2023-03-14T10:17:41;96413.34;;;12.22;53.83
78717;BME280;68045;50.042;14.432;2023-03-14T10:21:44;96405.41;;;12.22;53.05
78717;BME280;68045;50.042;14.432;2023-03-14T10:26:14;96425.78;;;12.21;53.45
78717;BME280;68045;50.042;14.432;2023-03-14T10:34:37;96429.34;;;12.30;52.49
78717;BME280;68045;50.042;14.432;2023-03-14T10:38:38;96408.78;;;12.27;52.82
78717;BME280;68045;50.042;14.432;2023-03-14T10:42:41;96411.34;;;12.32;52.65
78717;BME280;68045;50.042;14.432;2023-03-14T10:46:45;96412.75;;;12.25;52.75
78717;BME280;68045;50.042;14.432;2023-03-14T10:55:11;96411.13;;;12.10;53.85
78717;BME280;68045;50.042;14.432;2023-03-14T10:59:14;96410.78;;;12.17;53.80
78717;BME280;68045;50.042;14.432;2023-03-14T11:03:16;96413.13;;;12.18;53.27
78717;BME280;68045;50.042;14.432;2023-03-14T11:11:22;96413.91;;;12.19;53.16
78717;BME280;68045;50.042;14.432;2023-03-14T11:29:02;96443.94;;;12.28;53.74
78717;BME280;68045;50.042;14.432;2023-03-14T11:33:24;96412.34;;;12.18;52.83
78717;BME280;68045;50.042;14.432;2023-03-14T11:37:33;96416.75;;;12.03;52.81
78717;BME280;68045;50.042;14.432;2023-03-14T11:41:39;96403.63;;;11.98;53.13
78717;BME280;68045;50.042;14.432;2023-03-14T11:45:42;96403.03;;;12.01;53.74
78717;BME280;68045;50.042;14.432;2023-03-14T11:58:29;96390.19;;;12.14;53.30
78717;BME280;68045;50.042;14.432;2023-03-14T12:02:49;96387.03;;;12.12;52.22
78717;BME280;68045;50.042;14.432;2023-03-14T12:06:51;96392.06;;;12.13;52.37
78717;BME280;68045;50.042;14.432;2023-03-14T12:10:55;96384.81;;;12.19;52.34
78717;BME280;68045;50.042;14.432;2023-03-14T12:15:02;96397.25;;;12.18;52.01
78717;BME280;68045;50.042;14.432;2023-03-14T12:19:24;96383.53;;;12.16;52.00
78717;BME280;68045;50.042;14.432;2023-03-14T12:23:27;96382.47;;;12.17;51.93
78717;BME280;68045;50.042;14.432;2023-03-14T12:32:21;96388.91;;;12.30;51.36
78717;BME280;68045;50.042;14.432;2023-03-14T12:40:56;96393.81;;;12.18;51.59
78717;BME280;68045;50.042;14.432;2023-03-14T12:49:16;96365.03;;;12.35;51.32
78717;BME280;68045;50.042;14.432;2023-03-14T12:58:06;96362.31;;;12.21;50.74
78717;BME280;68045;50.042;14.432;2023-03-14T13:06:10;96349.38;;;12.20;51.07
78717;BME280;68045;50.042;14.432;2023-03-14T13:10:28;96356.97;;;12.26;50.62
78717;BME280;68045;50.042;14.432;2023-03-14T13:14:31;96346.56;;;12.30;51.65
78717;BME280;68045;50.042;14.432;2023-03-14T13:18:37;96337.00;;;12.34;51.79
78717;BME280;68045;50.042;14.432;2023-03-14T13:22:46;96339.47;;;12.44;51.37
78717;BME280;68045;50.042;14.432;2023-03-14T13:26:47;96334.19;;;12.44;51.37
78717;BME280;68045;50.042;14.432;2023-03-14T13:30:54;96339.22;;;12.27;51.45
78717;BME280;68045;50.042;14.432;2023-03-14T13:34:57;96342.72;;;12.22;51.94
78717;BME280;68045;50.042;14.432;2023-03-14T13:39:00;96320.72;;;12.27;51.61
78717;BME280;68045;50.042;14.432;2023-03-14T13:43:13;96316.09;;;12.32;51.45
78717;BME280;68045;50.042;14.432;2023-03-14T13:47:18;96328.28;;;12.47;50.71
78717;BME280;68045;50.042;14.432;2023-03-14T13:51:20;96320.81;;;12.68;49.37
78717;BME280;68045;50.042;14.432;2023-03-14T13:55:22;96335.34;;;12.71;50.04
78717;BME280;68045;50.042;14.432;2023-03-14T13:59:24;96323.56;;;12.63;50.40
78717;BME280;68045;50.042;14.432;2023-03-14T14:03:27;96314.16;;;12.71;50.19
78717;BME280;68045;50.042;14.432;2023-03-14T14:07:28;96317.66;;;13.12;48.74
78717;BME280;68045;50.042;14.432;2023-03-14T14:11:45;96317.25;;;13.05;49.13
78717;BME280;68045;50.042;14.432;2023-03-14T14:15:49;96316.53;;;12.86;49.52
78717;BME280;68045;50.042;14.432;2023-03-14T14:19:53;96313.09;;;12.72;50.48
78717;BME280;68045;50.042;14.432;2023-03-14T14:23:55;96314.91;;;12.57;50.80
78717;BME280;68045;50.042;14.432;2023-03-14T14:27:56;96329.13;;;12.48;52.91
78717;BME280;68045;50.042;14.432;2023-03-14T14:32:00;96326.13;;;12.17;56.07
78717;BME280;68045;50.042;14.432;2023-03-14T14:36:02;96336.56;;;11.89;56.30
78717;BME280;68045;50.042;14.432;2023-03-14T14:40:30;96338.03;;;11.76;58.35
78717;BME280;68045;50.042;14.432;2023-03-14T14:44:32;96337.47;;;11.79;65.49
78717;BME280;68045;50.042;14.432;2023-03-14T14:48:38;96334.56;;;11.81;66.42
78717;BME280;68045;50.042;14.432;2023-03-14T14:52:46;96330.09;;;11.76;66.76
78717;BME280;68045;50.042;14.432;2023-03-14T14:56:53;96321.41;;;11.76;66.83
78717;BME280;68045;50.042;14.432;2023-03-14T15:00:58;96311.63;;;11.58;64.94
78717;BME280;68045;50.042;14.432;2023-03-14T15:05:00;96314.53;;;11.56;65.87
78717;BME280;68045;50.042;14.432;2023-03-14T15:09:01;96311.03;;;11.61;68.00
78717;BME280;68045;50.042;14.432;2023-03-14T15:13:02;96309.41;;;11.65;66.34
78717;BME280;68045;50.042;14.432;2023-03-14T15:17:03;96307.53;;;11.46;67.63
78717;BME280;68045;50.042;14.432;2023-03-14T15:21:05;96310.34;;;11.31;65.91
78717;BME280;68045;50.042;14.432;2023-03-14T15:25:06;96314.59;;;11.27;65.92
78717;BME280;68045;50.042;14.432;2023-03-14T15:29:09;96315.28;;;11.38;67.82
78717;BME280;68045;50.042;14.432;2023-03-14T15:33:13;96332.06;;;11.28;68.28
78717;BME280;68045;50.042;14.432;2023-03-14T15:37:16;96313.56;;;11.04;68.54
78717;BME280;68045;50.042;14.432;2023-03-14T15:41:18;96326.63;;;10.90;69.45
78717;BME280;68045;50.042;14.432;2023-03-14T15:45:19;96338.38;;;10.79;68.38
78717;BME280;68045;50.042;14.432;2023-03-14T15:49:20;96335.78;;;10.74;69.84
78717;BME280;68045;50.042;14.432;2023-03-14T15:53:22;96331.25;;;10.80;68.23
78717;BME280;68045;50.042;14.432;2023-03-14T15:57:23;96324.91;;;11.05;68.22
78717;BME280;68045;50.042;14.432;2023-03-14T16:01:25;96322.88;;;11.20;68.57
78717;BME280;68045;50.042;14.432;2023-03-14T16:05:27;96315.91;;;11.06;68.81
78717;BME280;68045;50.042;14.432;2023-03-14T16:09:28;96332.06;;;10.75;69.13
78717;BME280;68045;50.042;14.432;2023-03-14T16:13:29;96321.66;;;10.60;71.22
78717;BME280;68045;50.042;14.432;2023-03-14T16:17:30;96318.56;;;10.53;70.32
78717;BME280;68045;50.042;14.432;2023-03-14T16:21:32;96328.06;;;10.49;70.66
78717;BME280;68045;50.042;14.432;2023-03-14T16:25:33;96326.59;;;10.37;70.99
78717;BME280;68045;50.042;14.432;2023-03-14T16:29:35;96331.41;;;10.30;72.68
78717;BME280;68045;50.042;14.432;2023-03-14T16:33:36;96339.06;;;10.27;72.19
78717;BME280;68045;50.042;14.432;2023-03-14T16:37:38;96335.34;;;10.28;72.11
78717;BME280;68045;50.042;14.432;2023-03-14T16:41:39;96342.53;;;10.17;71.75
78717;BME280;68045;50.042;14.432;2023-03-14T16:45:40;96339.41;;;10.15;72.56
78717;BME280;68045;50.042;14.432;2023-03-14T16:49:41;96340.69;;;10.17;72.06
78717;BME280;68045;50.042;14.432;2023-03-14T16:53:43;96356.50;;;10.17;71.85
78717;BME280;68045;50.042;14.432;2023-03-14T16:57:47;96391.06;;;10.11;72.92
78717;BME280;68045;50.042;14.432;2023-03-14T17:01:48;96412.75;;;10.03;73.27
78717;BME280;68045;50.042;14.432;2023-03-14T17:05:51;96384.63;;;9.83;73.46
78717;BME280;68045;50.042;14.432;2023-03-14T17:09:52;96424.00;;;9.59;71.79
78717;BME280;68045;50.042;14.432;2023-03-14T17:13:54;96451.44;;;9.27;73.45
78717;BME280;68045;50.042;14.432;2023-03-14T17:17:55;96461.72;;;9.08;73.39
78717;BME280;68045;50.042;14.432;2023-03-14T17:21:57;96459.91;;;8.99;73.87
78717;BME280;68045;50.042;14.432;2023-03-14T17:25:58;96475.97;;;8.97;74.08
78717;BME280;68045;50.042;14.432;2023-03-14T17:29:59;96481.75;;;8.84;74.35
78717;BME280;68045;50.042;14.432;2023-03-14T17:34:00;96498.31;;;8.85;74.46
78717;BME280;68045;50.042;14.432;2023-03-14T17:38:01;96505.94;;;8.76;75.06
78717;BME280;68045;50.042;14.432;2023-03-14T17:42:06;96492.78;;;8.71;76.34
78717;BME280;68045;50.042;14.432;2023-03-14T17:46:09;96506.47;;;8.68;76.60
78717;BME280;68045;50.042;14.432;2023-03-14T17:50:14;96530.09;;;8.73;76.80
78717;BME280;68045;50.042;14.432;2023-03-14T17:54:15;96528.03;;;8.75;77.58
78717;BME280;68045;50.042;14.432;2023-03-14T17:58:16;96527.00;;;8.81;76.90
78717;BME280;68045;50.042;14.432;2023-03-14T18:02:17;96541.72;;;8.87;76.22
78717;BME280;68045;50.042;14.432;2023-03-14T18:06:18;96571.97;;;8.90;75.32
78717;BME280;68045;50.042;14.432;2023-03-14T18:10:19;96560.41;;;8.91;74.42
78717;BME280;68045;50.042;14.432;2023-03-14T18:14:21;96600.91;;;8.95;74.14
78717;BME280;68045;50.042;14.432;2023-03-14T18:18:22;96632.50;;;8.90;74.61
78717;BME280;68045;50.042;14.432;2023-03-14T18:22:24;96617.50;;;8.90;73.28
78717;BME280;68045;50.042;14.432;2023-03-14T18:26:25;96652.97;;;8.77;70.20
78717;BME280;68045;50.042;14.432;2023-03-14T18:30:27;96716.25;;;8.56;68.20
78717;BME280;68045;50.042;14.432;2023-03-14T18:34:28;96748.78;;;8.39;68.02
78717;BME280;68045;50.042;14.432;2023-03-14T18:38:29;96753.63;;;8.25;66.53
78717;BME280;68045;50.042;14.432;2023-03-14T18:42:30;96795.09;;;8.18;66.81
78717;BME280;68045;50.042;14.432;2023-03-14T18:46:31;96802.88;;;8.08;67.47
78717;BME280;68045;50.042;14.432;2023-03-14T18:50:32;96827.72;;;7.95;66.91
78717;BME280;68045;50.042;14.432;2023-03-14T18:54:34;96835.47;;;7.80;66.60
78717;BME280;68045;50.042;14.432;2023-03-14T18:58:35;96850.09;;;7.71;67.32
78717;BME280;68045;50.042;14.432;2023-03-14T19:02:37;96880.56;;;7.72;66.11
78717;BME280;68045;50.042;14.432;2023-03-14T19:06:38;96883.34;;;7.65;67.10
78717;BME280;68045;50.042;14.432;2023-03-14T19:10:39;96911.63;;;7.58;66.34
78717;BME280;68045;50.042;14.432;2023-03-14T19:14:40;96915.72;;;7.49;65.17
78717;BME280;68045;50.042;14.432;2023-03-14T19:18:41;96924.56;;;7.43;65.06
78717;BME280;68045;50.042;14.432;2023-03-14T19:22:42;96944.94;;;7.36;64.99
78717;BME280;68045;50.042;14.432;2023-03-14T19:26:44;96946.88;;;7.24;64.85
78717;BME280;68045;50.042;14.432;2023-03-14T19:30:46;96977.63;;;7.11;64.89
78717;BME280;68045;50.042;14.432;2023-03-14T19:34:47;97006.84;;;6.98;64.09
78717;BME280;68045;50.042;14.432;2023-03-14T19:38:49;97019.88;;;6.93;64.85
78717;BME280;68045;50.042;14.432;2023-03-14T19:42:51;97042.72;;;6.81;63.62
78717;BME280;68045;50.042;14.432;2023-03-14T19:46:52;97065.38;;;6.70;62.96
78717;BME280;68045;50.042;14.432;2023-03-14T19:50:53;97070.75;;;6.64;63.89
78717;BME280;68045;50.042;14.432;2023-03-14T19:54:54;97090.81;;;6.58;62.63
78717;BME280;68045;50.042;14.432;2023-03-14T19:58:57;97119.00;;;6.51;63.12
78717;BME280;68045;50.042;14.432;2023-03-14T20:02:58;97113.84;;;6.56;62.88
78717;BME280;68045;50.042;14.432;2023-03-14T20:06:59;97138.94;;;6.52;62.53
78717;BME280;68045;50.042;14.432;2023-03-14T20:11:05;97150.44;;;6.39;62.22
78717;BME280;68045;50.042;14.432;2023-03-14T20:15:09;97160.81;;;6.34;62.19
78717;BME280;68045;50.042;14.432;2023-03-14T20:19:11;97181.69;;;6.29;61.68
78717;BME280;68045;50.042;14.432;2023-03-14T20:23:13;97196.63;;;6.28;60.82
78717;BME280;68045;50.042;14.432;2023-03-14T20:27:15;97206.19;;;6.23;60.00
78717;BME280;68045;50.042;14.432;2023-03-14T20:31:16;97217.81;;;6.15;59.86
78717;BME280;68045;50.042;14.432;2023-03-14T20:35:17;97226.00;;;6.07;60.76
78717;BME280;68045;50.042;14.432;2023-03-14T20:39:24;97240.91;;;6.07;63.20
78717;BME280;68045;50.042;14.432;2023-03-14T20:43:26;97267.31;;;6.05;62.17
78717;BME280;68045;50.042;14.432;2023-03-14T20:47:28;97279.81;;;5.91;62.09
78717;BME280;68045;50.042;14.432;2023-03-14T20:51:29;97285.34;;;5.83;61.29
78717;BME280;68045;50.042;14.432;2023-03-14T20:55:30;97298.75;;;5.75;61.31
78717;BME280;68045;50.042;14.432;2023-03-14T20:59:31;97315.22;;;5.64;60.86
78717;BME280;68045;50.042;14.432;2023-03-14T21:03:33;97322.41;;;5.68;61.72
78717;BME280;68045;50.042;14.432;2023-03-14T21:07:34;97324.59;;;5.71;60.21
78717;BME280;68045;50.042;14.432;2023-03-14T21:11:41;97338.69;;;5.70;60.04
78717;BME280;68045;50.042;14.432;2023-03-14T21:15:47;97343.88;;;5.59;59.50
78717;BME280;68045;50.042;14.432;2023-03-14T21:19:48;97344.19;;;5.50;59.99
78717;BME280;68045;50.042;14.432;2023-03-14T21:23:49;97360.53;;;5.46;59.81
78717;BME280;68045;50.042;14.432;2023-03-14T21:27:54;97363.38;;;5.44;59.66
78717;BME280;68045;50.042;14.432;2023-03-14T21:31:55;97375.06;;;5.42;60.03
78717;BME280;68045;50.042;14.432;2023-03-14T21:35:56;97375.66;;;5.44;60.15
78717;BME280;68045;50.042;14.432;2023-03-14T21:39:57;97375.38;;;5.52;61.95
78717;BME280;68045;50.042;14.432;2023-03-14T21:43:58;97390.69;;;5.48;60.11
78717;BME280;68045;50.042;14.432;2023-03-14T21:48:01;97392.47;;;5.36;60.04
78717;BME280;68045;50.042;14.432;2023-03-14T21:52:07;97398.25;;;5.38;59.73
78717;BME280;68045;50.042;14.432;2023-03-14T21:56:08;97396.91;;;5.36;59.02
78717;BME280;68045;50.042;14.432;2023-03-14T22:00:11;97398.63;;;5.42;59.86
78717;BME280;68045;50.042;14.432;2023-03-14T22:04:13;97397.16;;;5.46;59.24
78717;BME280;68045;50.042;14.432;2023-03-14T22:08:16;97409.16;;;5.35;58.82
78717;BME280;68045;50.042;14.432;2023-03-14T22:12:17;97414.81;;;5.32;58.23
78717;BME280;68045;50.042;14.432;2023-03-14T22:16:19;97413.66;;;5.28;59.75
78717;BME280;68045;50.042;14.432;2023-03-14T22:20:20;97416.19;;;5.16;58.50
78717;BME280;68045;50.042;14.432;2023-03-14T22:24:21;97427.88;;;5.14;58.31
78717;BME280;68045;50.042;14.432;2023-03-14T22:28:22;97437.75;;;5.12;59.42